Time;durP1;ratioP1;P1;durP2;ratioP2;P2;SDS_P1;SDS_P2;PMS_P1;PMS_P2;Temp;Humidity;BMP_temperature;BMP_pressure;BME280_temperature;BME280_humidity;BME280_pressure;Samples;Min_cycle;Max_cycle;Signal;HPM_P1;HPM_P2
2023/09/17 00:01:27;;;;;;;6.68;4.05;;;;;;;15.71;100.00;100585.53;5218447;28;20078;-71
2023/09/17 00:03:58;;;;;;;8.65;4.82;;;;;;;15.70;100.00;100575.09;5200130;28;20508;-72
2023/09/17 00:06:28;;;;;;;6.85;4.18;;;;;;;15.69;100.00;100582.13;5213166;28;20057;-71
2023/09/17 00:08:59;;;;;;;7.72;4.57;;;;;;;15.68;100.00;100582.22;5217077;28;20025;-71
2023/09/17 00:11:29;;;;;;;7.70;4.05;;;;;;;15.73;100.00;100581.00;5217736;28;20362;-71
2023/09/17 00:14:00;;;;;;;6.43;3.97;;;;;;;15.66;100.00;100584.94;5218659;28;20447;-72
2023/09/17 00:16:31;;;;;;;10.10;4.60;;;;;;;15.61;100.00;100578.22;5217931;28;20494;-72
2023/09/17 00:19:01;;;;;;;5.95;4.25;;;;;;;15.57;100.00;100579.34;5198129;28;20287;-73
2023/09/17 00:21:31;;;;;;;7.25;4.25;;;;;;;15.54;100.00;100580.34;5217546;28;20021;-72
2023/09/17 00:24:02;;;;;;;6.10;4.25;;;;;;;15.54;100.00;100575.06;5201418;28;20021;-72
2023/09/17 00:26:32;;;;;;;7.25;3.90;;;;;;;15.50;100.00;100570.91;5218338;28;20024;-72
2023/09/17 00:29:03;;;;;;;10.13;3.88;;;;;;;15.46;100.00;100564.13;5216964;28;20028;-73
2023/09/17 00:31:34;;;;;;;6.45;3.88;;;;;;;15.64;100.00;100570.13;5215972;28;20032;-72
2023/09/17 00:34:04;;;;;;;6.68;3.88;;;;;;;15.71;100.00;100567.06;5195640;28;20395;-72
2023/09/17 00:36:35;;;;;;;8.52;4.22;;;;;;;15.62;100.00;100566.75;5204394;28;20268;-72
2023/09/17 00:39:05;;;;;;;5.88;3.63;;;;;;;15.64;100.00;100571.00;5217167;28;20079;-72
2023/09/17 00:41:35;;;;;;;7.07;4.28;;;;;;;15.61;100.00;100572.94;5216078;28;20031;-70
2023/09/17 00:44:06;;;;;;;6.47;3.95;;;;;;;15.63;100.00;100569.31;5217186;28;20045;-72
2023/09/17 00:46:36;;;;;;;6.25;4.13;;;;;;;15.63;100.00;100577.22;5216701;28;20061;-70
2023/09/17 00:49:13;;;;;;;6.03;3.80;;;;;;;15.59;100.00;100577.47;5200145;28;20021;-72
2023/09/17 00:51:43;;;;;;;7.53;4.10;;;;;;;15.53;100.00;100573.38;5198258;28;20127;-71
2023/09/17 00:54:14;;;;;;;8.90;4.47;;;;;;;15.56;100.00;100561.84;5217286;28;20116;-72
2023/09/17 00:56:44;;;;;;;7.70;4.30;;;;;;;15.57;100.00;100563.53;5215224;28;20536;-71
2023/09/17 00:59:14;;;;;;;5.85;4.22;;;;;;;15.52;100.00;100563.78;5200189;28;20025;-72
2023/09/17 01:01:45;;;;;;;11.23;4.10;;;;;;;15.44;100.00;100568.63;5197418;28;20036;-71
2023/09/17 01:04:17;;;;;;;6.15;4.45;;;;;;;15.35;100.00;100558.59;5217354;28;20283;-72
2023/09/17 01:06:49;;;;;;;6.18;4.53;;;;;;;15.36;100.00;100555.03;5198452;28;20047;-72
2023/09/17 01:09:21;;;;;;;7.10;4.75;;;;;;;15.31;100.00;100557.06;5217725;28;20021;-72
2023/09/17 01:11:52;;;;;;;11.10;4.60;;;;;;;15.37;100.00;100562.00;5214385;28;20021;-72
2023/09/17 01:14:22;;;;;;;7.68;4.72;;;;;;;15.40;100.00;100556.53;5217272;28;20092;-72
2023/09/17 01:16:54;;;;;;;8.20;5.00;;;;;;;15.25;100.00;100557.38;5197945;28;20033;-72
2023/09/17 01:19:29;;;;;;;8.43;5.05;;;;;;;15.23;100.00;100550.50;5217834;28;20498;-72
2023/09/17 01:22:09;;;;;;;7.07;4.65;;;;;;;15.23;100.00;100561.03;5216030;28;20421;-72
2023/09/17 01:24:45;;;;;;;7.25;4.82;;;;;;;15.23;100.00;100554.00;5196395;28;20024;-72
2023/09/17 01:27:18;;;;;;;6.75;4.45;;;;;;;15.35;100.00;100557.75;5196708;28;20517;-72
2023/09/17 01:29:49;;;;;;;9.20;4.68;;;;;;;15.36;100.00;100554.19;5202625;28;20385;-71
2023/09/17 01:32:20;;;;;;;6.28;4.40;;;;;;;15.31;100.00;100550.94;5206682;28;20397;-72
2023/09/17 01:34:53;;;;;;;6.63;3.80;;;;;;;15.40;100.00;100550.44;5206313;28;20029;-72
2023/09/17 01:37:30;;;;;;;6.00;4.13;;;;;;;15.35;100.00;100540.16;5225363;28;20033;-72
2023/09/17 01:40:06;;;;;;;7.30;4.03;;;;;;;15.31;100.00;100540.41;5223659;28;20353;-73
2023/09/17 01:42:39;;;;;;;7.97;4.15;;;;;;;15.20;100.00;100553.31;5204156;28;20129;-72
2023/09/17 01:45:12;;;;;;;8.45;4.47;;;;;;;15.30;100.00;100544.84;5208356;28;20443;-72
2023/09/17 01:47:44;;;;;;;6.85;4.13;;;;;;;15.35;100.00;100555.13;5223577;28;20021;-71
2023/09/17 01:50:19;;;;;;;6.82;3.80;;;;;;;15.38;100.00;100553.16;5224250;28;20021;-72
2023/09/17 01:52:50;;;;;;;6.43;4.28;;;;;;;15.36;100.00;100549.75;5216664;28;20040;-73
2023/09/17 01:55:22;;;;;;;6.07;4.45;;;;;;;15.32;100.00;100542.97;5217979;28;20037;-72
2023/09/17 01:57:53;;;;;;;8.10;4.70;;;;;;;15.24;100.00;100546.94;5215956;28;20032;-73
2023/09/17 02:00:24;;;;;;;5.55;4.05;;;;;;;15.28;100.00;100551.94;5217269;28;20385;-72
2023/09/17 02:02:54;;;;;;;8.23;4.13;;;;;;;15.31;100.00;100551.81;5198175;28;20213;-73
2023/09/17 02:05:25;;;;;;;7.35;4.38;;;;;;;15.47;100.00;100552.66;5215060;28;20252;-72
2023/09/17 02:07:55;;;;;;;7.18;3.67;;;;;;;15.42;100.00;100549.44;5213296;28;20024;-72
2023/09/17 02:10:25;;;;;;;6.80;3.70;;;;;;;15.43;100.00;100545.88;5217542;28;20063;-73
2023/09/17 02:12:56;;;;;;;6.75;3.88;;;;;;;15.30;100.00;100544.84;5215162;28;20033;-72
2023/09/17 02:15:26;;;;;;;4.90;3.55;;;;;;;15.28;100.00;100549.31;5214044;28;20034;-72
2023/09/17 02:17:56;;;;;;;6.82;3.53;;;;;;;15.35;100.00;100544.59;5215984;28;20025;-73
2023/09/17 02:20:27;;;;;;;4.60;3.38;;;;;;;15.28;100.00;100546.69;5216719;28;20021;-72
2023/09/17 02:22:57;;;;;;;5.15;3.20;;;;;;;15.13;100.00;100552.78;5194013;28;20073;-72
2023/09/17 02:25:27;;;;;;;5.25;3.13;;;;;;;15.03;100.00;100561.25;5216848;28;20389;-70
2023/09/17 02:27:58;;;;;;;5.75;3.67;;;;;;;15.01;100.00;100557.88;5215219;28;20108;-73
2023/09/17 02:30:29;;;;;;;11.65;3.85;;;;;;;14.99;100.00;100555.31;5195981;28;20033;-71
2023/09/17 02:32:59;;;;;;;8.13;3.60;;;;;;;14.96;100.00;100544.94;5216872;28;20036;-72
2023/09/17 02:35:29;;;;;;;5.72;3.85;;;;;;;14.99;100.00;100557.09;5215915;28;20063;-72
2023/09/17 02:38:00;;;;;;;6.30;4.00;;;;;;;15.15;100.00;100537.75;5198267;28;20463;-73
2023/09/17 02:40:30;;;;;;;4.63;3.55;;;;;;;15.24;100.00;100545.16;5215615;28;20135;-72
2023/09/17 02:43:01;;;;;;;8.15;3.78;;;;;;;15.14;100.00;100546.59;5198486;28;20090;-72
2023/09/17 02:45:31;;;;;;;5.05;3.40;;;;;;;15.26;100.00;100542.41;5214832;28;20029;-72
2023/09/17 02:48:02;;;;;;;6.53;3.63;;;;;;;15.37;100.00;100538.28;5215534;28;20025;-72
2023/09/17 02:50:32;;;;;;;7.25;3.72;;;;;;;15.38;100.00;100542.63;5214786;28;20107;-73
2023/09/17 02:53:03;;;;;;;5.07;3.28;;;;;;;15.25;100.00;100546.84;5215323;28;20024;-72
2023/09/17 02:55:34;;;;;;;7.13;3.47;;;;;;;15.30;100.00;100533.44;5215244;28;20116;-72
2023/09/17 02:58:04;;;;;;;8.52;3.78;;;;;;;15.20;100.00;100537.50;5216306;28;20029;-72
2023/09/17 03:00:35;;;;;;;9.65;4.00;;;;;;;15.16;100.00;100536.81;5215673;28;20021;-72
2023/09/17 03:03:06;;;;;;;6.15;3.97;;;;;;;15.16;100.00;100536.81;5196455;28;20127;-72
2023/09/17 03:05:39;;;;;;;5.63;4.35;;;;;;;15.19;100.00;100523.47;5216208;28;20023;-72
2023/09/17 03:08:10;;;;;;;7.47;4.47;;;;;;;15.22;100.00;100523.31;5216929;28;20021;-73
2023/09/17 03:10:43;;;;;;;7.78;4.70;;;;;;;15.26;100.00;100516.94;5197422;28;20385;-73
2023/09/17 03:13:14;;;;;;;9.40;4.75;;;;;;;15.38;100.00;100521.56;5215425;28;20029;-72
2023/09/17 03:15:44;;;;;;;8.20;4.20;;;;;;;15.49;100.00;100524.44;5215821;28;20032;-73
2023/09/17 03:18:15;;;;;;;10.80;5.35;;;;;;;15.48;100.00;100517.47;5197771;28;20020;-73
2023/09/17 03:20:45;;;;;;;7.05;4.90;;;;;;;15.52;100.00;100508.47;5215307;28;20087;-72
2023/09/17 03:23:15;;;;;;;8.63;4.75;;;;;;;15.48;100.00;100514.84;5215085;28;20025;-73
2023/09/17 03:25:46;;;;;;;9.95;5.47;;;;;;;15.55;100.00;100516.19;5215670;28;20021;-71
2023/09/17 03:28:16;;;;;;;8.63;5.32;;;;;;;15.64;100.00;100513.03;5216424;28;20060;-72
2023/09/17 03:30:46;;;;;;;10.32;5.38;;;;;;;15.57;100.00;100522.22;5215763;28;20078;-71
2023/09/17 03:33:17;;;;;;;10.38;5.28;;;;;;;15.66;100.00;100518.19;5216087;28;20025;-72
2023/09/17 03:35:47;;;;;;;8.45;5.95;;;;;;;15.62;100.00;100519.31;5217145;28;20033;-72
2023/09/17 03:38:17;;;;;;;7.80;5.25;;;;;;;15.66;100.00;100526.97;5201836;28;20035;-72
2023/09/17 03:40:48;;;;;;;7.97;5.50;;;;;;;15.66;100.00;100524.34;5218420;28;20209;-72
2023/09/17 03:43:18;;;;;;;7.25;5.22;;;;;;;15.70;100.00;100520.59;5218632;28;20112;-72
2023/09/17 03:45:49;;;;;;;9.18;5.68;;;;;;;15.72;100.00;100521.34;5219792;28;20670;-72
2023/09/17 03:48:20;;;;;;;10.73;5.07;;;;;;;15.77;100.00;100529.84;5219503;28;20025;-72
2023/09/17 03:50:50;;;;;;;9.57;6.03;;;;;;;15.85;100.00;100530.25;5218491;28;20051;-73
2023/09/17 03:53:21;;;;;;;8.35;5.00;;;;;;;15.80;100.00;100531.44;5219472;28;20516;-73
2023/09/17 03:55:52;;;;;;;6.80;5.28;;;;;;;15.74;100.00;100543.19;5217922;28;20036;-73
2023/09/17 03:58:23;;;;;;;9.20;5.47;;;;;;;15.74;100.00;100537.91;5202324;28;20039;-72
2023/09/17 04:00:53;;;;;;;10.43;5.68;;;;;;;15.65;100.00;100541.09;5217479;28;20485;-71
2023/09/17 04:03:24;;;;;;;7.47;5.03;;;;;;;15.67;100.00;100544.47;5219443;28;20024;-73
2023/09/17 04:05:55;;;;;;;10.10;5.32;;;;;;;15.68;100.00;100545.34;5200492;28;20028;-72
2023/09/17 04:08:25;;;;;;;7.97;5.00;;;;;;;15.63;100.00;100545.59;5201678;28;20380;-73
2023/09/17 04:10:56;;;;;;;7.38;4.85;;;;;;;15.66;100.00;100542.78;5217581;28;20498;-72
2023/09/17 04:13:27;;;;;;;7.22;5.43;;;;;;;15.68;100.00;100540.91;5219502;28;20040;-73
2023/09/17 04:15:58;;;;;;;7.10;5.70;;;;;;;15.71;100.00;100540.72;5192357;28;20108;-73
2023/09/17 04:18:28;;;;;;;9.20;5.40;;;;;;;15.76;100.00;100532.56;5206204;28;20472;-70
2023/09/17 04:20:58;;;;;;;8.40;5.47;;;;;;;15.75;100.00;100534.38;5214999;28;20110;-73
2023/09/17 04:23:28;;;;;;;8.60;5.25;;;;;;;15.66;100.00;100537.50;5218726;28;20144;-72
2023/09/17 04:25:59;;;;;;;7.80;5.05;;;;;;;15.66;100.00;100536.66;5200512;28;20280;-73
2023/09/17 04:28:29;;;;;;;7.97;5.35;;;;;;;15.68;100.00;100540.06;5200262;28;20075;-72
2023/09/17 04:30:59;;;;;;;8.90;5.18;;;;;;;15.65;100.00;100534.94;5216492;28;20036;-72
2023/09/17 04:33:30;;;;;;;8.27;4.95;;;;;;;15.72;100.00;100539.78;5216523;28;20465;-73
2023/09/17 04:36:00;;;;;;;7.50;5.18;;;;;;;15.77;100.00;100543.03;5218209;28;20562;-72
2023/09/17 04:38:30;;;;;;;6.22;4.90;;;;;;;15.80;100.00;100545.47;5218182;28;20148;-72
2023/09/17 04:41:01;;;;;;;6.38;4.72;;;;;;;15.91;100.00;100553.59;5210747;28;20580;-71
2023/09/17 04:43:31;;;;;;;6.20;4.60;;;;;;;15.88;100.00;100551.16;5215957;28;20552;-72
2023/09/17 04:46:02;;;;;;;7.30;4.53;;;;;;;15.86;100.00;100549.56;5218421;28;20037;-72
2023/09/17 04:48:32;;;;;;;7.00;4.25;;;;;;;15.97;100.00;100552.41;5218119;28;20111;-72
2023/09/17 04:51:02;;;;;;;7.93;5.60;;;;;;;15.97;100.00;100555.91;5218080;28;20017;-73
2023/09/17 04:53:33;;;;;;;11.27;5.93;;;;;;;15.94;100.00;100564.00;5217332;28;20024;-71
2023/09/17 04:56:03;;;;;;;7.35;5.28;;;;;;;15.95;100.00;100557.78;5217560;28;20117;-73
2023/09/17 04:58:34;;;;;;;6.95;5.07;;;;;;;15.96;100.00;100556.84;5218542;28;20128;-72
2023/09/17 05:01:06;;;;;;;8.52;4.90;;;;;;;16.09;100.00;100564.88;5217587;28;20400;-73
2023/09/17 05:03:37;;;;;;;6.95;5.03;;;;;;;16.17;100.00;100566.13;5217599;28;20112;-73
2023/09/17 05:06:07;;;;;;;7.75;5.15;;;;;;;16.09;100.00;100568.38;5216827;28;20103;-73
2023/09/17 05:08:38;;;;;;;9.00;5.45;;;;;;;16.08;100.00;100571.94;5217291;28;20025;-73
2023/09/17 05:11:08;;;;;;;8.70;5.18;;;;;;;16.10;100.00;100572.72;5217383;28;20035;-71
2023/09/17 05:13:38;;;;;;;7.50;5.10;;;;;;;16.11;100.00;100570.91;5218197;28;20021;-72
2023/09/17 05:16:09;;;;;;;7.60;5.65;;;;;;;16.13;100.00;100569.03;5198960;28;20160;-73
2023/09/17 05:18:39;;;;;;;9.93;6.15;;;;;;;16.16;100.00;100571.50;5217146;28;20486;-73
2023/09/17 05:21:09;;;;;;;11.82;6.72;;;;;;;16.18;100.00;100574.91;5226544;22;20491;-77
2023/09/17 05:23:40;;;;;;;8.05;6.28;;;;;;;16.22;100.00;100573.78;5177290;28;20053;-77
2023/09/17 05:26:10;;;;;;;9.10;6.97;;;;;;;16.25;100.00;100579.72;5185043;28;20110;-78
2023/09/17 05:28:40;;;;;;;11.73;7.45;;;;;;;16.24;100.00;100585.94;5186101;28;20034;-77
2023/09/17 05:31:11;;;;;;;10.35;6.90;;;;;;;16.36;100.00;100582.63;5174644;28;20037;-74
2023/09/17 05:33:41;;;;;;;9.75;7.35;;;;;;;16.37;100.00;100584.31;5173097;28;20188;-73
2023/09/17 05:36:11;;;;;;;11.77;7.30;;;;;;;16.41;100.00;100591.09;5163737;28;20495;-75
2023/09/17 05:38:41;;;;;;;9.30;7.00;;;;;;;16.41;100.00;100585.81;5171545;28;20075;-75
2023/09/17 05:41:12;;;;;;;10.35;7.22;;;;;;;16.47;100.00;100590.75;5167219;28;20107;-76
2023/09/17 05:43:42;;;;;;;9.93;6.55;;;;;;;16.45;100.00;100592.63;5169674;28;20308;-75
2023/09/17 05:46:12;;;;;;;9.52;6.95;;;;;;;16.56;100.00;100592.81;5170821;28;20025;-75
2023/09/17 05:48:43;;;;;;;13.80;7.03;;;;;;;16.58;100.00;100600.66;5174951;28;20029;-75
2023/09/17 05:51:13;;;;;;;10.68;7.70;;;;;;;16.60;100.00;100601.44;5169781;28;20054;-75
2023/09/17 05:53:43;;;;;;;10.90;6.82;;;;;;;16.66;100.00;100601.91;5168275;28;20033;-75
2023/09/17 05:56:14;;;;;;;10.18;6.68;;;;;;;16.69;100.00;100606.16;5172303;28;20025;-75
2023/09/17 05:58:44;;;;;;;9.43;6.85;;;;;;;16.74;100.00;100604.09;5173111;28;20037;-75
2023/09/17 06:01:15;;;;;;;8.82;6.28;;;;;;;16.79;100.00;100602.88;5166866;28;20026;-75
2023/09/17 06:03:45;;;;;;;11.15;7.40;;;;;;;16.77;100.00;100610.88;5170255;28;20026;-75
2023/09/17 06:06:15;;;;;;;16.20;7.90;;;;;;;16.71;100.00;100607.75;5170777;28;20045;-76
2023/09/17 06:08:48;;;;;;;14.25;8.18;;;;;;;16.81;100.00;100612.38;5168288;28;20572;-74
2023/09/17 06:11:19;;;;;;;12.38;8.13;;;;;;;16.83;100.00;100614.94;5167120;28;20026;-75
2023/09/17 06:13:49;;;;;;;13.13;7.80;;;;;;;16.85;100.00;100608.63;5170461;28;20257;-72
2023/09/17 06:16:19;;;;;;;9.70;7.25;;;;;;;16.99;100.00;100607.78;5168261;28;20048;-75
2023/09/17 06:18:49;;;;;;;11.48;7.38;;;;;;;16.97;100.00;100607.03;5170988;28;20622;-74
2023/09/17 06:21:20;;;;;;;10.35;7.82;;;;;;;16.99;100.00;100610.44;5168944;28;20053;-75
2023/09/17 06:23:50;;;;;;;10.40;6.63;;;;;;;17.12;100.00;100611.38;5169445;28;20575;-73
2023/09/17 06:26:21;;;;;;;12.32;7.82;;;;;;;17.13;100.00;100608.63;5167312;28;20430;-75
2023/09/17 06:28:51;;;;;;;14.00;7.32;;;;;;;17.16;100.00;100600.50;5168968;28;20041;-75
2023/09/17 06:31:21;;;;;;;11.73;6.93;;;;;;;17.20;100.00;100603.81;5167592;28;20041;-75
2023/09/17 06:33:53;;;;;;;12.60;7.35;;;;;;;17.31;100.00;100602.19;5174349;28;20494;-75
2023/09/17 06:36:23;;;;;;;10.32;7.20;;;;;;;17.54;100.00;100604.31;5173835;28;20065;-74
2023/09/17 06:38:53;;;;;;;9.55;6.72;;;;;;;17.66;100.00;100605.31;5172226;28;20061;-76
2023/09/17 06:41:24;;;;;;;9.85;6.30;;;;;;;17.78;100.00;100607.13;5170560;28;20025;-75
2023/09/17 06:43:54;;;;;;;11.70;7.10;;;;;;;17.86;100.00;100605.69;5171065;28;20545;-75
2023/09/17 06:46:25;;;;;;;10.15;7.13;;;;;;;17.79;100.00;100608.88;5173398;28;20026;-75
2023/09/17 06:48:56;;;;;;;10.73;6.57;;;;;;;17.81;100.00;100604.31;5170111;28;20483;-75
2023/09/17 06:51:26;;;;;;;11.73;7.15;;;;;;;17.89;100.00;100589.66;5168755;28;20033;-76
2023/09/17 06:53:56;;;;;;;10.43;6.78;;;;;;;18.08;100.00;100594.56;5168601;28;20029;-76
2023/09/17 06:56:29;;;;;;;7.88;5.93;;;;;;;18.12;100.00;100596.06;5171734;28;20499;-76
2023/09/17 06:58:59;;;;;;;7.50;5.40;;;;;;;18.19;100.00;100602.66;5168265;28;20026;-75
2023/09/17 07:01:29;;;;;;;7.13;5.65;;;;;;;18.34;100.00;100606.97;5163847;28;20017;-74
2023/09/17 07:04:00;;;;;;;8.10;5.05;;;;;;;18.41;100.00;100605.59;5167288;28;20405;-75
2023/09/17 07:06:30;;;;;;;8.77;5.65;;;;;;;18.38;100.00;100608.47;5167643;28;20025;-75
2023/09/17 07:09:01;;;;;;;7.10;4.63;;;;;;;18.47;100.00;100598.09;5167790;28;20341;-75
2023/09/17 07:11:31;;;;;;;6.45;5.00;;;;;;;18.57;100.00;100588.59;5172375;28;20113;-76
2023/09/17 07:14:09;;;;;;;10.07;4.97;;;;;;;18.90;100.00;100594.22;5177209;28;20519;-75
2023/09/17 07:16:39;;;;;;;7.45;4.75;;;;;;;19.13;100.00;100589.00;5176390;28;20029;-76
2023/09/17 07:19:10;;;;;;;7.57;4.57;;;;;;;19.63;100.00;100580.97;5172607;28;20033;-76
2023/09/17 07:21:40;;;;;;;7.13;4.70;;;;;;;20.45;100.00;100584.53;5174908;28;20160;-76
2023/09/17 07:24:10;;;;;;;7.70;4.78;;;;;;;20.68;100.00;100588.91;5175672;28;20112;-73
2023/09/17 07:26:42;;;;;;;4.90;3.20;;;;;;;20.16;100.00;100598.31;5171007;28;20170;-76
2023/09/17 07:29:12;;;;;;;6.72;3.00;;;;;;;20.10;100.00;100604.06;5171688;28;20143;-74
2023/09/17 07:31:46;;;;;;;5.40;2.97;;;;;;;20.02;100.00;100596.69;5171550;28;20133;-75
2023/09/17 07:34:17;;;;;;;5.22;3.00;;;;;;;20.22;100.00;100597.84;5172443;28;20072;-75
2023/09/17 07:36:47;;;;;;;5.78;2.88;;;;;;;20.65;100.00;100591.81;5171009;28;20034;-76
2023/09/17 07:39:17;;;;;;;3.95;2.50;;;;;;;21.10;100.00;100597.09;5172174;28;20034;-75
2023/09/17 07:41:48;;;;;;;5.77;2.83;;;;;;;21.04;100.00;100588.78;5169983;28;20038;-75
2023/09/17 07:44:18;;;;;;;4.50;2.65;;;;;;;22.86;93.05;100578.81;5169756;28;20281;-76
2023/09/17 07:46:48;;;;;;;4.13;2.33;;;;;;;23.69;89.59;100579.47;5167410;28;20115;-76
2023/09/17 07:49:18;;;;;;;6.30;2.33;;;;;;;24.51;87.43;100577.13;5168559;28;20291;-76
2023/09/17 07:51:50;;;;;;;3.78;2.40;;;;;;;23.48;88.14;100590.22;5172971;28;20076;-76
2023/09/17 07:54:21;;;;;;;3.92;1.90;;;;;;;24.12;90.93;100575.47;5171615;28;20396;-76
2023/09/17 07:56:51;;;;;;;4.20;2.58;;;;;;;24.90;84.44;100590.31;5173917;28;20542;-76
2023/09/17 07:59:22;;;;;;;4.63;2.40;;;;;;;26.64;77.86;100588.19;5172496;28;20030;-76
2023/09/17 08:01:52;;;;;;;4.00;2.20;;;;;;;26.98;81.77;100588.13;5171382;28;20758;-75
2023/09/17 08:04:22;;;;;;;5.67;2.70;;;;;;;27.44;73.19;100590.41;5171958;28;20022;-76
2023/09/17 08:06:53;;;;;;;6.47;3.00;;;;;;;27.05;75.48;100602.59;5169065;28;20402;-76
2023/09/17 08:09:23;;;;;;;4.63;2.90;;;;;;;28.49;71.46;100586.19;5174839;28;20281;-77
2023/09/17 08:11:53;;;;;;;3.60;2.43;;;;;;;30.55;66.37;100589.09;5168186;28;20121;-77
2023/09/17 08:14:25;;;;;;;4.30;3.23;;;;;;;28.28;69.15;100597.38;5168714;28;20310;-76
2023/09/17 08:16:56;;;;;;;5.93;3.25;;;;;;;27.73;71.74;100595.41;5172034;28;20503;-76
2023/09/17 08:19:26;;;;;;;4.38;3.53;;;;;;;25.64;78.06;100600.06;5171401;28;20032;-76
2023/09/17 08:21:56;;;;;;;11.98;4.32;;;;;;;24.79;80.84;100589.66;5170882;28;20026;-76
2023/09/17 08:24:27;;;;;;;4.60;3.22;;;;;;;24.48;83.41;100595.28;5174760;28;20510;-76
2023/09/17 08:26:57;;;;;;;6.38;3.20;;;;;;;24.92;83.14;100595.50;5172469;28;20674;-73
2023/09/17 08:29:28;;;;;;;4.75;3.20;;;;;;;24.96;79.37;100583.56;5171783;28;20582;-74
2023/09/17 08:31:58;;;;;;;4.25;2.88;;;;;;;25.50;79.74;100581.81;5171695;28;20047;-75
2023/09/17 08:34:28;;;;;;;4.17;2.87;;;;;;;26.92;74.67;100569.13;5171363;28;20112;-73
2023/09/17 08:36:59;;;;;;;3.63;2.08;;;;;;;28.53;70.36;100569.53;5173779;28;20297;-76
2023/09/17 08:39:29;;;;;;;4.72;2.30;;;;;;;30.23;66.75;100567.75;5166476;28;20018;-75
2023/09/17 08:42:01;;;;;;;3.05;2.00;;;;;;;30.01;67.16;100578.50;5171409;28;20026;-77
2023/09/17 08:44:33;;;;;;;4.38;2.00;;;;;;;30.41;63.87;100580.97;5164973;28;20095;-76
2023/09/17 08:47:04;;;;;;;3.38;1.80;;;;;;;30.25;64.29;100581.09;5172268;28;20044;-76
2023/09/17 08:49:35;;;;;;;3.88;2.05;;;;;;;30.78;63.80;100567.50;5169153;28;20495;-76
2023/09/17 08:52:07;;;;;;;3.03;1.70;;;;;;;29.11;65.38;100572.81;5168963;28;20055;-76
2023/09/17 08:54:45;;;;;;;3.42;1.95;;;;;;;27.59;69.47;100569.16;5168372;28;20032;-76
2023/09/17 08:57:21;;;;;;;3.22;1.60;;;;;;;27.10;70.08;100572.63;5170613;28;20054;-75
2023/09/17 08:59:59;;;;;;;3.03;1.70;;;;;;;27.49;69.30;100569.28;5169647;28;20042;-74
2023/09/17 09:02:32;;;;;;;3.58;1.60;;;;;;;27.98;68.92;100560.38;5164732;28;20026;-73
2023/09/17 09:05:03;;;;;;;2.30;1.50;;;;;;;28.77;64.37;100558.75;5169198;28;20025;-75
2023/09/17 09:07:35;;;;;;;5.70;1.60;;;;;;;29.90;64.82;100560.06;5168972;28;20052;-76
2023/09/17 09:10:06;;;;;;;3.72;1.73;;;;;;;30.63;62.29;100558.53;5167847;28;20021;-76
2023/09/17 09:12:38;;;;;;;4.07;1.63;;;;;;;30.34;61.71;100561.09;5165177;28;20573;-73
2023/09/17 09:15:12;;;;;;;2.63;1.45;;;;;;;29.50;64.30;100560.25;5170220;28;20025;-76
2023/09/17 09:17:42;;;;;;;2.95;1.70;;;;;;;28.62;65.56;100559.63;5166223;28;20383;-75
2023/09/17 09:20:16;;;;;;;1.90;1.50;;;;;;;28.14;66.75;100556.88;5170213;28;20048;-76
2023/09/17 09:22:48;;;;;;;2.92;1.55;;;;;;;27.77;68.34;100546.56;5167889;28;20078;-76
2023/09/17 09:25:18;;;;;;;2.95;1.83;;;;;;;27.80;68.38;100556.97;5169577;28;20123;-75
2023/09/17 09:27:49;;;;;;;5.03;2.08;;;;;;;27.66;68.44;100554.91;5165901;28;20140;-75
2023/09/17 09:30:20;;;;;;;4.32;1.83;;;;;;;27.58;70.70;100552.19;5170877;28;20068;-73
2023/09/17 09:32:50;;;;;;;2.63;1.52;;;;;;;27.35;70.34;100545.75;5165807;28;20031;-75
2023/09/17 09:35:21;;;;;;;3.90;1.73;;;;;;;27.35;70.53;100551.13;5169200;28;20049;-75
2023/09/17 09:37:53;;;;;;;3.13;1.60;;;;;;;27.37;70.01;100537.50;5167673;28;20045;-74
2023/09/17 09:40:25;;;;;;;3.35;1.75;;;;;;;27.08;70.28;100535.16;5169970;28;20545;-73
2023/09/17 09:42:57;;;;;;;3.00;1.83;;;;;;;26.85;73.07;100542.09;5165977;28;20031;-75
2023/09/17 09:45:27;;;;;;;1.90;1.50;;;;;;;26.86;71.21;100541.09;5175176;28;20413;-75
2023/09/17 09:47:58;;;;;;;2.25;1.70;;;;;;;27.14;71.11;100537.22;5170754;28;20061;-75
2023/09/17 09:50:31;;;;;;;3.60;1.70;;;;;;;27.08;70.53;100543.22;5166727;28;20046;-73
2023/09/17 09:53:01;;;;;;;2.70;1.67;;;;;;;26.82;72.05;100537.06;5169288;28;20270;-76
2023/09/17 09:55:32;;;;;;;2.47;1.70;;;;;;;26.61;72.87;100533.03;5166089;28;20077;-74
2023/09/17 09:58:03;;;;;;;3.05;1.65;;;;;;;26.45;73.26;100537.41;5171139;28;20241;-75
2023/09/17 10:00:33;;;;;;;2.45;1.58;;;;;;;26.32;72.56;100539.66;5164347;28;20049;-76
2023/09/17 10:03:06;;;;;;;2.53;1.65;;;;;;;26.26;74.46;100538.44;5170698;28;20033;-76
2023/09/17 10:05:39;;;;;;;2.85;1.63;;;;;;;26.31;74.80;100532.63;5169031;28;20053;-76
2023/09/17 10:08:17;;;;;;;2.22;1.70;;;;;;;26.04;75.45;100527.34;5169392;28;20055;-75
2023/09/17 10:10:47;;;;;;;2.20;1.70;;;;;;;26.09;74.17;100528.56;5162270;28;20038;-75
2023/09/17 10:13:18;;;;;;;2.30;1.67;;;;;;;25.85;74.64;100524.81;5168812;28;20034;-75
2023/09/17 10:15:48;;;;;;;2.50;1.70;;;;;;;25.87;76.18;100526.34;5160176;28;20042;-76
2023/09/17 10:18:20;;;;;;;3.20;1.85;;;;;;;25.65;74.47;100523.25;5163094;28;20030;-75
2023/09/17 10:20:53;;;;;;;2.83;1.90;;;;;;;25.57;74.16;100529.34;5161210;28;20304;-76
2023/09/17 10:23:26;;;;;;;4.38;1.80;;;;;;;25.67;75.04;100523.94;5169385;28;20026;-74
2023/09/17 10:25:59;;;;;;;3.58;2.00;;;;;;;25.63;77.82;100522.56;5163145;28;20061;-75
2023/09/17 10:28:31;;;;;;;4.50;2.00;;;;;;;25.71;77.22;100525.31;5169408;28;20037;-73
2023/09/17 10:31:02;;;;;;;2.42;1.67;;;;;;;25.79;77.49;100523.56;5165472;28;20380;-73
2023/09/17 10:33:34;;;;;;;6.03;2.17;;;;;;;26.03;77.44;100525.66;5165093;28;20080;-75
2023/09/17 10:36:07;;;;;;;4.03;2.00;;;;;;;25.89;75.54;100518.16;5170598;28;20054;-74
2023/09/17 10:38:39;;;;;;;2.45;1.67;;;;;;;26.17;75.49;100511.72;5166753;28;20034;-75
2023/09/17 10:41:10;;;;;;;3.72;2.08;;;;;;;26.53;74.25;100514.19;5161278;28;20384;-72
2023/09/17 10:43:45;;;;;;;3.08;1.92;;;;;;;27.02;71.67;100514.34;5167471;28;20084;-75
2023/09/17 10:46:19;;;;;;;2.63;1.80;;;;;;;27.18;73.92;100509.09;5171915;28;20365;-76
2023/09/17 10:48:50;;;;;;;3.00;1.90;;;;;;;27.07;71.95;100506.66;5179174;28;20410;-74
2023/09/17 10:51:21;;;;;;;3.15;1.90;;;;;;;26.98;73.31;100509.47;5174112;28;20018;-75
2023/09/17 10:53:51;;;;;;;3.85;1.70;;;;;;;27.07;74.03;100503.13;5163487;28;20411;-74
2023/09/17 10:56:22;;;;;;;4.75;2.08;;;;;;;27.33;70.04;100510.16;5173109;28;20028;-76
2023/09/17 10:58:52;;;;;;;4.20;1.85;;;;;;;27.38;72.89;100507.81;5176694;28;20045;-72
2023/09/17 11:01:32;;;;;;;4.88;1.80;;;;;;;27.40;72.43;100511.19;5176080;28;20168;-75
2023/09/17 11:04:07;;;;;;;2.95;1.85;;;;;;;27.46;73.20;100507.81;5174825;28;20074;-76
2023/09/17 11:06:39;;;;;;;2.80;2.00;;;;;;;27.42;71.71;100506.47;5172878;28;20292;-75
2023/09/17 11:09:11;;;;;;;2.25;1.80;;;;;;;27.34;72.85;100513.66;5171627;28;20201;-75
2023/09/17 11:11:43;;;;;;;2.55;1.88;;;;;;;27.14;71.51;100510.38;5171233;28;20025;-76
2023/09/17 11:14:15;;;;;;;3.10;1.95;;;;;;;27.29;70.87;100498.03;5173323;28;20036;-75
2023/09/17 11:16:48;;;;;;;4.57;1.75;;;;;;;27.04;72.34;100509.66;5173143;28;20030;-75
2023/09/17 11:19:20;;;;;;;2.33;1.60;;;;;;;27.09;71.72;100506.50;5176916;28;20069;-75
2023/09/17 11:22:12;;;;;;;6.38;2.10;;;;;;;26.91;73.59;100503.88;5172171;28;20030;-75
2023/09/17 11:24:44;;;;;;;3.22;1.80;;;;;;;26.87;72.25;100504.34;5172983;28;20073;-76
2023/09/17 11:27:18;;;;;;;2.58;1.85;;;;;;;26.90;73.95;100506.75;5173888;28;20018;-75
2023/09/17 11:29:48;;;;;;;3.92;1.85;;;;;;;26.96;73.07;100506.91;5173522;28;20097;-73
2023/09/17 11:32:24;;;;;;;3.72;2.10;;;;;;;26.54;74.61;100507.00;5171754;28;20504;-75
2023/09/17 11:34:55;;;;;;;2.75;1.90;;;;;;;26.59;76.25;100502.00;5166334;28;20038;-75
2023/09/17 11:37:25;;;;;;;2.83;1.70;;;;;;;26.83;74.67;100501.16;5174425;28;20480;-73